Time,TemperatureF,DewpointF,PressureIn,WindDirection,WindDirectionDegrees,WindSpeedMPH,WindSpeedGustMPH,Humidity,HourlyPrecipIn,Conditions,Clouds,dailyrainin,SoftwareType,DateUTC
2014-11-26 00:09:00,79.2,74.3,29.70,South,180,11.4,-999.0,85,-99.99,,,0.00,Acu-Link.com,2014-11-26 05:09:00,
2014-11-26 00:24:00,79.2,74.3,29.70,South,180,15.0,-999.0,85,-99.99,,,0.00,Acu-Link.com,2014-11-26 05:24:00,
2014-11-26 00:39:00,79.2,74.3,29.70,SSE,157,13.5,-999.0,85,-99.99,,,0.00,Acu-Link.com,2014-11-26 05:39:00,
2014-11-26 00:54:00,79.3,74.4,29.70,SE,135,8.9,-999.0,85,-99.99,,,0.00,Acu-Link.com,2014-11-26 05:54:00,
2014-11-26 01:09:00,79.3,74.4,29.70,SSE,157,10.4,-999.0,85,-99.99,,,0.00,Acu-Link.com,2014-11-26 06:09:00,
2014-11-26 01:24:00,79.3,74.4,29.70,SW,225,2.7,-999.0,85,-99.99,,,0.00,Acu-Link.com,2014-11-26 06:24:00,
2014-11-26 01:40:00,79.2,74.3,29.70,West,270,6.3,-999.0,85,-99.99,,,0.00,Acu-Link.com,2014-11-26 06:40:00,
2014-11-26 01:55:00,79.0,74.4,29.71,West,270,3.7,-999.0,86,-99.99,,,0.00,Acu-Link.com,2014-11-26 06:55:00,
2014-11-26 02:10:00,78.8,74.2,29.70,South,180,8.3,-999.0,86,-99.99,,,0.00,Acu-Link.com,2014-11-26 07:10:00,
2014-11-26 02:25:00,78.6,74.0,29.69,South,180,5.8,-999.0,86,-99.99,,,0.00,Acu-Link.com,2014-11-26 07:25:00,
2014-11-26 02:40:00,78.6,74.0,29.70,SSE,157,3.2,-999.0,86,-99.99,,,0.00,Acu-Link.com,2014-11-26 07:40:00,
2014-11-26 02:55:00,78.4,73.9,29.70,SE,135,5.3,-999.0,86,-99.99,,,0.00,Acu-Link.com,2014-11-26 07:55:00,
2014-11-26 03:11:00,78.6,74.0,29.70,SW,225,5.3,-999.0,86,-99.99,,,0.00,Acu-Link.com,2014-11-26 08:11:00,
2014-11-26 03:26:00,78.8,74.2,29.69,WSW,247,5.3,-999.0,86,-99.99,,,0.00,Acu-Link.com,2014-11-26 08:26:00,
2014-11-26 03:41:00,79.0,74.4,29.69,SW,225,5.3,-999.0,86,-99.99,,,0.00,Acu-Link.com,2014-11-26 08:41:00,
2014-11-26 03:56:00,79.0,74.4,29.70,North,0,6.8,-999.0,86,-99.99,,,0.00,Acu-Link.com,2014-11-26 08:56:00,
2014-11-26 04:11:00,79.0,74.4,29.69,WSW,247,5.3,-999.0,86,-99.99,,,0.00,Acu-Link.com,2014-11-26 09:11:00,
2014-11-26 04:26:00,79.0,74.4,29.70,SW,225,5.3,-999.0,86,-99.99,,,0.00,Acu-Link.com,2014-11-26 09:26:00,
2014-11-26 04:41:00,79.0,74.4,29.70,WNW,292,4.2,-999.0,86,-99.99,,,0.00,Acu-Link.com,2014-11-26 09:41:00,
2014-11-26 04:57:00,78.8,74.2,29.70,WSW,247,7.8,-999.0,86,-99.99,,,0.00,Acu-Link.com,2014-11-26 09:57:00,
2014-11-26 05:12:00,78.8,74.2,29.70,SW,225,5.8,-999.0,86,-99.99,,,0.00,Acu-Link.com,2014-11-26 10:12:00,
2014-11-26 05:27:00,78.6,74.0,29.71,WSW,247,5.3,-999.0,86,-99.99,,,0.00,Acu-Link.com,2014-11-26 10:27:00,
2014-11-26 05:42:00,78.6,74.0,29.71,SW,225,3.7,-999.0,86,-99.99,,,0.00,Acu-Link.com,2014-11-26 10:42:00,
2014-11-26 05:57:00,78.6,74.0,29.72,SSE,157,3.2,-999.0,86,-99.99,,,0.00,Acu-Link.com,2014-11-26 10:57:00,
2014-11-26 06:13:00,78.6,74.0,29.73,WSW,247,5.3,-999.0,86,-99.99,,,0.00,Acu-Link.com,2014-11-26 11:13:00,